createdAt,value
2022-09-15T00:00:09.485Z,73.27
2022-09-15T00:02:45.651Z,72.81
2022-09-15T00:05:14.630Z,72.86
2022-09-15T00:07:46.237Z,72.63
2022-09-15T00:10:27.953Z,73.14
2022-09-15T00:13:12.159Z,72.73
2022-09-15T00:15:41.946Z,72.77
2022-09-15T00:18:13.380Z,73.08
2022-09-15T00:20:45.255Z,72.90
2022-09-15T00:23:18.115Z,72.77
2022-09-15T00:25:58.451Z,72.81
2022-09-15T00:28:31.746Z,72.70
2022-09-15T00:31:12.848Z,72.56
2022-09-15T00:33:40.814Z,72.79
2022-09-15T00:36:12.401Z,72.89
2022-09-15T00:38:50.458Z,72.86
2022-09-15T00:41:24.590Z,72.97
2022-09-15T00:44:04.395Z,73.10
2022-09-15T00:46:40.027Z,72.93
2022-09-15T00:49:19.422Z,72.94
2022-09-15T00:51:55.224Z,73.14
2022-09-15T00:54:46.966Z,73.30
2022-09-15T00:57:35.911Z,72.93
2022-09-15T01:00:12.421Z,72.76
2022-09-15T01:02:46.159Z,72.86
2022-09-15T01:05:31.453Z,72.59
2022-09-15T01:08:14.681Z,72.83
2022-09-15T01:10:48.255Z,72.72
2022-09-15T01:13:17.534Z,72.83
2022-09-15T01:16:09.870Z,72.62
2022-09-15T01:19:13.532Z,73.15
2022-09-15T01:22:24.339Z,71.83
2022-09-15T01:25:09.224Z,72.45
2022-09-15T01:28:23.070Z,72.31
2022-09-15T01:30:59.952Z,72.72
2022-09-15T01:33:51.880Z,72.69
2022-09-15T01:36:25.152Z,72.28
2022-09-15T01:39:08.355Z,72.83
2022-09-15T01:41:45.284Z,72.91
2022-09-15T01:44:20.457Z,72.58
2022-09-15T01:46:53.455Z,72.73
2022-09-15T01:49:31.620Z,72.90
2022-09-15T01:51:59.233Z,72.63
2022-09-15T01:54:33.204Z,72.71
2022-09-15T01:57:09.171Z,72.75
2022-09-15T01:59:37.481Z,72.87
2022-09-15T02:02:10.247Z,72.40
2022-09-15T02:04:52.812Z,72.61
2022-09-15T02:07:48.136Z,72.84
2022-09-15T02:10:37.789Z,73.17
2022-09-15T02:13:21.606Z,72.85
2022-09-15T02:16:04.924Z,72.94
2022-09-15T02:19:20.736Z,72.69
2022-09-15T02:25:22.135Z,73.21
2022-09-15T02:27:52.203Z,73.08
2022-09-15T02:30:25.398Z,73.35
2022-09-15T02:33:04.190Z,72.83
2022-09-15T02:35:38.948Z,72.51
2022-09-15T02:38:13.648Z,72.84
2022-09-15T02:40:50.824Z,72.29
2022-09-15T02:43:27.819Z,72.62
2022-09-15T02:46:02.306Z,72.29
2022-09-15T02:48:38.656Z,72.21
2022-09-15T02:51:10.591Z,72.56
2022-09-15T02:53:44.104Z,72.59
2022-09-15T02:56:13.901Z,72.48
2022-09-15T02:58:45.866Z,73.12
2022-09-15T03:01:19.465Z,72.48
2022-09-15T03:03:46.801Z,72.72
2022-09-15T03:06:18.528Z,72.74
2022-09-15T03:09:05.186Z,73.06
2022-09-15T03:11:41.230Z,73.33
2022-09-15T03:14:26.506Z,73.46
2022-09-15T03:17:02.553Z,73.20
2022-09-15T03:19:32.691Z,73.43
2022-09-15T03:22:05.418Z,72.81
2022-09-15T03:24:42.364Z,72.27
2022-09-15T03:27:15.234Z,72.10
2022-09-15T03:29:51.324Z,72.78
2022-09-15T03:32:29.879Z,72.36
2022-09-15T03:35:02.253Z,72.08
2022-09-15T03:37:32.936Z,72.33
2022-09-15T03:40:05.849Z,72.31
2022-09-15T03:42:33.367Z,72.13
2022-09-15T03:45:03.915Z,72.38
2022-09-15T03:47:31.319Z,71.83
2022-09-15T03:49:58.912Z,72.71
2022-09-15T03:52:28.282Z,73.12
2022-09-15T03:54:58.556Z,73.06
2022-09-15T03:57:26.167Z,72.81
2022-09-15T03:59:58.475Z,72.75
2022-09-15T04:02:30.044Z,72.59
2022-09-15T04:05:02.311Z,72.54
2022-09-15T04:07:32.945Z,72.03
2022-09-15T04:10:02.916Z,73.08
2022-09-15T04:12:46.189Z,72.63
2022-09-15T04:15:16.105Z,71.49
2022-09-15T04:17:47.352Z,72.24
2022-09-15T04:20:21.687Z,72.56
2022-09-15T04:22:49.893Z,73.07
2022-09-15T04:25:21.905Z,72.28
2022-09-15T04:28:02.780Z,72.58
2022-09-15T04:30:30.039Z,72.69
2022-09-15T04:33:05.937Z,72.09
2022-09-15T04:35:42.508Z,72.11
2022-09-15T04:38:15.649Z,71.92
2022-09-15T04:40:48.931Z,71.74
2022-09-15T04:43:15.846Z,71.93
2022-09-15T04:45:42.361Z,72.33
2022-09-15T04:48:08.984Z,71.84
2022-09-15T04:50:35.557Z,72.12
2022-09-15T04:53:02.234Z,71.91
2022-09-15T04:55:29.052Z,72.56
2022-09-15T04:57:55.568Z,72.22
2022-09-15T05:00:22.149Z,72.46
2022-09-15T05:02:48.782Z,72.43
2022-09-15T05:05:15.280Z,72.07
2022-09-15T05:07:41.857Z,73.05
2022-09-15T05:10:08.992Z,73.16
2022-09-15T05:12:35.618Z,73.69
2022-09-15T05:15:06.045Z,73.54
2022-09-15T05:17:33.250Z,73.17
2022-09-15T05:20:00.494Z,72.85
2022-09-15T05:22:28.020Z,73.15
2022-09-15T05:24:54.775Z,72.83
2022-09-15T05:27:21.264Z,73.44
2022-09-15T05:29:47.838Z,73.08
2022-09-15T05:32:14.976Z,73.54
2022-09-15T05:34:41.536Z,73.71
2022-09-15T05:37:09.390Z,73.05
2022-09-15T05:39:35.921Z,73.58
2022-09-15T05:42:02.625Z,73.83
2022-09-15T05:44:29.491Z,74.14
2022-09-15T05:46:56.187Z,73.94
2022-09-15T05:49:23.136Z,73.41
2022-09-15T05:51:49.795Z,73.30
2022-09-15T05:54:16.395Z,73.88
2022-09-15T05:56:42.943Z,74.21
2022-09-15T05:59:09.539Z,74.06
2022-09-15T06:01:36.295Z,73.89
2022-09-15T06:04:03.080Z,74.24
2022-09-15T06:06:31.071Z,73.82
2022-09-15T06:08:59.483Z,73.87
2022-09-15T06:11:30.795Z,74.05
2022-09-15T06:14:01.590Z,73.91
2022-09-15T06:16:31.722Z,74.16
2022-09-15T06:18:59.215Z,74.31
2022-09-15T06:21:27.714Z,75.12
2022-09-15T06:24:06.954Z,73.64
2022-09-15T06:26:34.099Z,73.59
2022-09-15T06:29:02.702Z,73.60
2022-09-15T06:31:33.848Z,73.90
2022-09-15T06:34:01.742Z,76.81
2022-09-15T06:36:29.524Z,79.08
2022-09-15T06:38:56.871Z,78.14
2022-09-15T06:41:23.710Z,76.77
2022-09-15T06:43:50.251Z,76.79
2022-09-15T06:46:19.546Z,77.15
2022-09-15T06:48:48.562Z,76.75
2022-09-15T06:51:17.025Z,76.16
2022-09-15T06:53:44.134Z,76.98
2022-09-15T06:56:23.680Z,77.26
2022-09-15T06:58:50.557Z,76.73
2022-09-15T07:01:28.592Z,76.41
2022-09-15T07:03:58.204Z,77.36
2022-09-15T07:06:25.519Z,77.00
2022-09-15T07:08:53.849Z,76.50
2022-09-15T07:11:20.777Z,77.15
2022-09-15T07:13:49.153Z,77.03
2022-09-15T07:16:16.180Z,77.22
2022-09-15T07:18:43.774Z,78.67
2022-09-15T07:21:17.218Z,80.04
2022-09-15T07:23:44.255Z,77.75
2022-09-15T07:26:16.036Z,76.90
2022-09-15T07:28:44.271Z,76.77
2022-09-15T07:31:14.032Z,76.62
2022-09-15T07:33:41.042Z,77.27
2022-09-15T07:36:08.562Z,76.45
2022-09-15T07:38:38.419Z,76.31
2022-09-15T07:41:10.884Z,75.81
2022-09-15T07:43:38.165Z,75.97
2022-09-15T07:46:05.184Z,76.30
2022-09-15T07:48:32.159Z,75.49
2022-09-15T07:51:01.626Z,74.53
2022-09-15T07:53:29.352Z,75.06
2022-09-15T07:55:56.322Z,74.49
2022-09-15T07:58:23.315Z,75.53
2022-09-15T08:00:50.088Z,75.17
2022-09-15T08:03:16.794Z,74.25
2022-09-15T08:05:45.563Z,75.33
2022-09-15T08:08:12.586Z,75.09
2022-09-15T08:10:41.170Z,75.01
2022-09-15T08:13:08.147Z,75.51
2022-09-15T08:15:37.776Z,74.30
2022-09-15T08:18:05.406Z,75.08
2022-09-15T08:20:31.909Z,75.80
2022-09-15T08:22:58.590Z,75.37
2022-09-15T08:25:25.242Z,75.30
2022-09-15T08:27:54.009Z,75.29
2022-09-15T08:30:21.248Z,76.09
2022-09-15T08:32:48.713Z,75.69
2022-09-15T08:35:15.968Z,75.84
2022-09-15T08:37:42.716Z,77.07
2022-09-15T08:40:32.867Z,77.02
2022-09-15T08:43:05.899Z,77.17
2022-09-15T08:45:41.932Z,76.40
2022-09-15T08:48:09.970Z,76.55
2022-09-15T08:50:40.422Z,76.24
2022-09-15T08:53:27.475Z,75.57
2022-09-15T08:56:00.027Z,75.89
2022-09-15T08:58:29.835Z,75.23
2022-09-15T09:01:03.886Z,75.45
2022-09-15T09:03:39.576Z,75.74
2022-09-15T09:06:40.483Z,73.93
2022-09-15T09:09:22.139Z,75.21
2022-09-15T09:11:51.978Z,74.82
2022-09-15T09:14:36.378Z,74.50
2022-09-15T09:17:36.409Z,75.11
2022-09-15T09:20:34.281Z,74.20
2022-09-15T09:23:02.262Z,74.86
2022-09-15T09:25:28.888Z,75.50
2022-09-15T09:27:58.196Z,75.91
2022-09-15T09:30:27.631Z,75.56
2022-09-15T09:33:04.396Z,75.60
2022-09-15T09:35:41.366Z,75.33
2022-09-15T09:38:09.542Z,75.24
2022-09-15T09:40:41.153Z,75.03
2022-09-15T09:43:08.151Z,74.70
2022-09-15T09:45:34.803Z,74.94
2022-09-15T09:48:05.793Z,75.89
2022-09-15T09:50:39.081Z,75.93
2022-09-15T09:53:27.258Z,82.50
2022-09-15T09:55:55.527Z,83.87
2022-09-15T09:58:24.927Z,84.44
2022-09-15T10:00:52.830Z,85.55
2022-09-15T10:03:21.764Z,85.21
2022-09-15T10:06:07.628Z,85.38
2022-09-15T10:08:36.432Z,85.08
2022-09-15T10:11:05.823Z,86.25
2022-09-15T10:13:34.602Z,86.15
2022-09-15T10:16:02.505Z,85.25
2022-09-15T10:18:35.713Z,84.86
2022-09-15T10:21:04.374Z,83.18
2022-09-15T10:23:32.413Z,83.13
2022-09-15T10:26:33.741Z,82.75
2022-09-15T10:29:12.595Z,82.56
2022-09-15T10:31:39.896Z,83.62
2022-09-15T10:34:30.498Z,85.10
2022-09-15T10:37:14.049Z,86.72
2022-09-15T10:39:52.347Z,85.56
2022-09-15T10:42:37.887Z,86.64
2022-09-15T10:45:12.408Z,85.74
2022-09-15T10:47:43.300Z,86.27
2022-09-15T10:50:43.873Z,85.46
2022-09-15T10:53:17.420Z,83.90
2022-09-15T10:56:13.932Z,86.80
2022-09-15T10:59:06.978Z,84.77
2022-09-15T11:01:48.965Z,84.67
2022-09-15T11:04:25.216Z,85.31
2022-09-15T11:07:24.315Z,85.51
2022-09-15T11:09:55.874Z,85.85
2022-09-15T11:12:36.358Z,85.33
2022-09-15T11:15:09.829Z,84.75
2022-09-15T11:18:01.345Z,85.16
2022-09-15T11:21:10.986Z,85.97
2022-09-15T11:23:45.874Z,85.42
2022-09-15T11:26:30.058Z,86.11
2022-09-15T11:29:11.913Z,85.84
2022-09-15T11:31:41.137Z,84.18
2022-09-15T11:34:20.160Z,85.44
2022-09-15T11:36:52.136Z,84.99
2022-09-15T11:39:29.064Z,84.31
2022-09-15T11:42:01.014Z,84.43
2022-09-15T11:44:39.884Z,82.74
2022-09-15T11:47:26.305Z,82.14
2022-09-15T11:50:07.883Z,80.17
2022-09-15T11:52:51.920Z,79.23
2022-09-15T11:55:30.403Z,78.29
2022-09-15T11:58:15.512Z,78.87
2022-09-15T12:00:49.119Z,77.43
2022-09-15T12:03:31.162Z,79.00
2022-09-15T12:06:02.364Z,78.03
2022-09-15T12:08:46.960Z,78.12
2022-09-15T12:11:18.828Z,76.35
2022-09-15T12:13:45.655Z,78.24
2022-09-15T12:16:12.630Z,76.85
2022-09-15T12:19:06.968Z,77.04
2022-09-15T12:21:38.750Z,75.58
2022-09-15T12:24:33.884Z,76.83
2022-09-15T12:27:01.125Z,74.63
2022-09-15T12:29:27.732Z,76.90
2022-09-15T12:32:20.499Z,77.03
2022-09-15T12:35:20.203Z,76.83
2022-09-15T12:38:06.911Z,77.58
2022-09-15T12:40:36.226Z,77.21
2022-09-15T12:43:04.512Z,78.33
2022-09-15T12:45:33.760Z,75.43
2022-09-15T12:48:05.288Z,75.95
2022-09-15T12:50:35.404Z,76.38
2022-09-15T12:53:12.992Z,73.24
2022-09-15T12:56:01.721Z,74.98
2022-09-15T12:58:48.322Z,76.12
2022-09-15T13:01:18.625Z,74.52
2022-09-15T13:03:45.473Z,74.83
2022-09-15T13:06:24.956Z,75.14
2022-09-15T13:08:58.455Z,76.07
2022-09-15T13:11:37.547Z,75.97
2022-09-15T13:14:04.406Z,73.91
2022-09-15T13:16:40.019Z,73.50
2022-09-15T13:19:27.190Z,72.67
2022-09-15T13:22:02.259Z,72.23
2022-09-15T13:25:16.692Z,74.05
2022-09-15T13:27:45.620Z,73.12
2022-09-15T13:30:24.360Z,74.75
2022-09-15T13:33:00.962Z,71.43
2022-09-15T13:35:45.721Z,73.28
2022-09-15T13:38:34.134Z,73.10
2022-09-15T13:41:31.052Z,71.62
2022-09-15T13:44:26.217Z,70.39
2022-09-15T13:47:18.737Z,69.64
2022-09-15T13:50:06.931Z,71.71
2022-09-15T13:53:12.887Z,72.96
2022-09-15T13:55:42.237Z,72.44
2022-09-15T14:01:04.726Z,71.33
2022-09-15T14:03:44.729Z,67.36
2022-09-15T14:06:33.734Z,69.70
2022-09-15T14:09:09.694Z,70.83
2022-09-15T14:11:37.773Z,71.57
2022-09-15T14:14:08.587Z,71.46
2022-09-15T14:16:39.146Z,72.35
2022-09-15T14:19:38.888Z,71.47
2022-09-15T14:22:17.548Z,71.21
2022-09-15T14:24:44.664Z,71.97
2022-09-15T14:27:11.738Z,69.33
2022-09-15T14:29:42.012Z,70.73
2022-09-15T14:32:15.094Z,70.89
2022-09-15T14:34:42.382Z,71.70
2022-09-15T14:37:17.499Z,69.78
2022-09-15T14:39:56.466Z,68.59
2022-09-15T14:42:32.329Z,69.23
2022-09-15T14:48:00.174Z,70.00
2022-09-15T14:50:31.890Z,67.49
2022-09-15T14:53:10.883Z,69.24
2022-09-15T14:56:00.619Z,69.00
2022-09-15T14:58:35.809Z,70.63
2022-09-15T15:01:15.651Z,69.13
2022-09-15T15:03:48.269Z,68.01
2022-09-15T15:06:28.666Z,69.12
2022-09-15T15:09:00.677Z,70.94
2022-09-15T15:11:28.048Z,67.23
2022-09-15T15:13:56.506Z,67.78
2022-09-15T15:16:26.136Z,65.82
2022-09-15T15:18:53.261Z,66.27
2022-09-15T15:21:43.657Z,63.76
2022-09-15T15:24:13.035Z,67.07
2022-09-15T15:26:42.185Z,66.44
2022-09-15T15:29:44.506Z,64.28
2022-09-15T15:32:22.400Z,64.50
2022-09-15T15:34:54.648Z,66.19
2022-09-15T15:37:28.252Z,68.23
2022-09-15T15:40:00.013Z,65.31
2022-09-15T15:42:28.792Z,68.15
2022-09-15T15:44:59.580Z,63.41
2022-09-15T15:47:29.378Z,66.86
2022-09-15T15:50:13.613Z,66.76
2022-09-15T15:52:41.929Z,67.27
2022-09-15T15:55:13.276Z,67.84
2022-09-15T15:57:40.013Z,65.50
2022-09-15T16:00:36.045Z,66.61
2022-09-15T16:03:02.622Z,67.35
2022-09-15T16:05:29.507Z,66.88
2022-09-15T16:07:57.055Z,67.84
2022-09-15T16:10:24.905Z,68.15
2022-09-15T16:12:52.031Z,67.70
2022-09-15T16:15:20.593Z,69.21
2022-09-15T16:17:48.178Z,68.10
2022-09-15T16:20:16.159Z,68.76
2022-09-15T16:22:43.204Z,69.40
2022-09-15T16:25:18.995Z,64.17
2022-09-15T16:27:45.597Z,66.68
2022-09-15T16:30:12.441Z,64.42
2022-09-15T16:32:40.157Z,65.07
2022-09-15T16:35:31.659Z,67.19
2022-09-15T16:37:58.170Z,66.28
2022-09-15T16:40:24.751Z,66.99
2022-09-15T16:42:51.557Z,68.10
2022-09-15T16:45:27.169Z,66.88
2022-09-15T16:47:53.737Z,67.06
2022-09-15T16:50:20.283Z,67.16
2022-09-15T16:52:46.857Z,68.83
2022-09-15T16:55:19.865Z,69.25
2022-09-15T16:57:46.466Z,68.22
2022-09-15T17:00:13.646Z,68.96
2022-09-15T17:02:40.238Z,68.56
2022-09-15T17:05:15.557Z,68.60
2022-09-15T17:07:42.069Z,68.89
2022-09-15T17:10:08.828Z,68.23
2022-09-15T17:12:36.983Z,68.98
2022-09-15T17:15:15.131Z,66.93
2022-09-15T17:17:41.654Z,69.31
2022-09-15T17:20:09.372Z,69.16
2022-09-15T17:22:36.310Z,70.62
2022-09-15T17:25:13.710Z,69.09
2022-09-15T17:27:40.262Z,69.72
2022-09-15T17:30:07.832Z,68.44
2022-09-15T17:32:35.061Z,69.25
2022-09-15T17:35:01.846Z,68.51
2022-09-15T17:37:28.409Z,69.36
2022-09-15T17:39:58.834Z,68.71
2022-09-15T17:42:25.806Z,68.89
2022-09-15T17:44:53.301Z,70.00
2022-09-15T17:47:19.967Z,69.85
2022-09-15T17:49:46.535Z,70.77
2022-09-15T17:52:13.029Z,70.34
2022-09-15T17:54:39.622Z,69.82
2022-09-15T17:57:07.815Z,69.98
2022-09-15T17:59:34.862Z,70.24
2022-09-15T18:02:01.601Z,69.43
2022-09-15T18:04:29.494Z,69.60
2022-09-15T18:06:56.079Z,71.42
2022-09-15T18:09:22.604Z,69.92
2022-09-15T18:11:49.133Z,69.45
2022-09-15T18:14:15.808Z,69.90
2022-09-15T18:16:43.197Z,70.45
2022-09-15T18:19:10.285Z,70.78
2022-09-15T18:21:36.828Z,69.92
2022-09-15T18:24:03.707Z,71.36
2022-09-15T18:26:30.319Z,70.37
2022-09-15T18:28:56.968Z,70.10
2022-09-15T18:31:23.728Z,70.20
2022-09-15T18:33:50.343Z,70.46
2022-09-15T18:36:16.861Z,70.66
2022-09-15T18:38:43.717Z,70.88
2022-09-15T18:41:11.720Z,70.07
2022-09-15T18:43:38.347Z,69.92
2022-09-15T18:46:11.207Z,70.92
2022-09-15T18:48:37.860Z,70.46
2022-09-15T18:51:08.563Z,70.18
2022-09-15T18:53:36.508Z,69.09
2022-09-15T18:56:13.525Z,68.94
2022-09-15T18:58:40.354Z,69.85
2022-09-15T19:01:07.370Z,68.96
2022-09-15T19:03:34.309Z,68.15
2022-09-15T19:06:05.259Z,69.14
2022-09-15T19:08:33.257Z,70.94
2022-09-15T19:11:00.905Z,70.82
2022-09-15T19:13:28.848Z,70.53
2022-09-15T19:15:56.350Z,70.65
2022-09-15T19:18:23.431Z,70.07
2022-09-15T19:20:50.007Z,70.85
2022-09-15T19:23:16.690Z,70.94
2022-09-15T19:25:45.457Z,71.35
2022-09-15T19:28:12.155Z,71.48
2022-09-15T19:30:39.126Z,71.34
2022-09-15T19:33:05.856Z,72.09
2022-09-15T19:35:32.463Z,70.06
2022-09-15T19:37:59.009Z,70.08
2022-09-15T19:40:25.607Z,71.08
2022-09-15T19:42:52.290Z,70.63
2022-09-15T19:45:19.145Z,70.96
2022-09-15T19:47:45.651Z,71.31
2022-09-15T19:50:12.263Z,70.65
2022-09-15T19:52:39.032Z,69.37
2022-09-15T19:55:07.412Z,69.29
2022-09-15T19:57:33.992Z,69.40
2022-09-15T20:00:00.497Z,70.24
2022-09-15T20:02:27.202Z,69.78
2022-09-15T20:04:53.955Z,70.80
2022-09-15T20:07:20.572Z,71.46
2022-09-15T20:09:47.512Z,69.67
2022-09-15T20:12:14.128Z,69.33
2022-09-15T20:14:41.223Z,70.48
2022-09-15T20:17:07.828Z,72.10
2022-09-15T20:19:34.636Z,72.06
2022-09-15T20:22:01.378Z,72.67
2022-09-15T20:24:27.952Z,71.89
2022-09-15T20:26:54.617Z,71.74
2022-09-15T20:29:21.235Z,71.08
2022-09-15T20:31:48.194Z,72.69
2022-09-15T20:34:15.115Z,71.86
2022-09-15T20:36:42.034Z,70.85
2022-09-15T20:39:12.850Z,71.17
2022-09-15T20:41:40.506Z,71.81
2022-09-15T20:44:10.873Z,71.51
2022-09-15T20:46:37.462Z,71.83
2022-09-15T20:49:04.701Z,72.02
2022-09-15T20:51:33.944Z,70.96
2022-09-15T20:54:03.488Z,72.89
2022-09-15T20:56:31.090Z,71.66
2022-09-15T20:58:59.141Z,71.61
2022-09-15T21:01:27.638Z,71.33
2022-09-15T21:03:55.337Z,73.34
2022-09-15T21:06:24.215Z,72.91
2022-09-15T21:08:51.183Z,72.96
2022-09-15T21:11:19.424Z,71.93
2022-09-15T21:13:48.128Z,72.18
2022-09-15T21:16:20.595Z,73.10
2022-09-15T21:18:48.083Z,72.76
2022-09-15T21:21:22.905Z,72.08
2022-09-15T21:23:51.715Z,72.62
2022-09-15T21:26:20.416Z,72.42
2022-09-15T21:28:47.365Z,71.60
2022-09-15T21:31:19.080Z,72.08
2022-09-15T21:33:47.191Z,71.25
2022-09-15T21:36:22.225Z,72.23
2022-09-15T21:38:50.578Z,71.50
2022-09-15T21:41:21.457Z,71.01
2022-09-15T21:43:48.784Z,72.67
2022-09-15T21:46:18.284Z,71.56
2022-09-15T21:48:47.312Z,71.10
2022-09-15T21:51:15.655Z,72.11
2022-09-15T21:53:42.987Z,71.45
2022-09-15T21:56:12.629Z,73.11
2022-09-15T21:58:42.988Z,72.40
2022-09-15T22:01:14.117Z,72.42
2022-09-15T22:03:44.628Z,72.09
2022-09-15T22:06:12.419Z,72.31
2022-09-15T22:08:39.475Z,71.66
2022-09-15T22:11:06.884Z,71.48
2022-09-15T22:13:35.773Z,71.86
2022-09-15T22:16:05.349Z,73.33
2022-09-15T22:18:32.301Z,73.83
2022-09-15T22:21:14.840Z,72.34
2022-09-15T22:23:42.919Z,73.02
2022-09-15T22:26:21.003Z,72.67
2022-09-15T22:28:47.808Z,72.69
2022-09-15T22:31:16.410Z,73.21
2022-09-15T22:33:43.161Z,72.48
2022-09-15T22:36:14.027Z,71.73
2022-09-15T22:38:40.722Z,72.37
2022-09-15T22:41:09.412Z,71.02
2022-09-15T22:43:36.771Z,71.85
2022-09-15T22:46:03.809Z,70.89
2022-09-15T22:48:30.472Z,70.32
2022-09-15T22:50:57.171Z,71.98
2022-09-15T22:53:24.164Z,73.01
2022-09-15T22:55:51.560Z,71.93
2022-09-15T22:58:18.123Z,72.72
2022-09-15T23:00:45.005Z,72.69
2022-09-15T23:03:12.043Z,73.45
2022-09-15T23:05:38.667Z,73.52
2022-09-15T23:08:05.283Z,73.05
2022-09-15T23:10:32.726Z,71.70
2022-09-15T23:12:59.801Z,72.32
2022-09-15T23:15:26.567Z,70.99
2022-09-15T23:17:53.148Z,70.59
2022-09-15T23:20:19.752Z,71.73
2022-09-15T23:22:46.353Z,71.11
2022-09-15T23:25:13.495Z,70.69
2022-09-15T23:27:40.532Z,70.61
2022-09-15T23:30:07.599Z,71.03
2022-09-15T23:32:34.194Z,70.78
2022-09-15T23:35:00.836Z,71.12
2022-09-15T23:37:27.451Z,71.23
2022-09-15T23:39:54.370Z,71.08
2022-09-15T23:42:20.947Z,70.56
2022-09-15T23:44:47.556Z,70.75
2022-09-15T23:47:14.145Z,70.49
2022-09-15T23:49:41.611Z,70.06
2022-09-15T23:52:08.163Z,71.26
2022-09-15T23:54:34.741Z,70.39
2022-09-15T23:57:05.345Z,70.81
2022-09-15T23:59:31.913Z,69.47
